Time;durP1;ratioP1;P1;durP2;ratioP2;P2;SDS_P1;SDS_P2;PMS_P1;PMS_P2;Temp;Humidity;BMP_temperature;BMP_pressure;BME280_temperature;BME280_humidity;BME280_pressure;Samples;Min_cycle;Max_cycle;Signal;HPM_P1;HPM_P2
2022/10/26 15:15:31;;;;;;;41.72;7.57;;;;;;;-144.40;100.00;60209.53;5625448;22;15239703;-96
2022/10/26 15:28:51;;;;;;;28.17;5.45;;;;;;;-144.40;100.00;60209.53;6282399;22;20011;-96
2022/10/26 15:31:17;;;;;;;34.37;5.43;;;;;;;-144.40;100.00;60209.53;6264632;22;20023;-95
2022/10/26 15:33:52;;;;;;;31.83;5.88;;;;;;;-144.40;100.00;60209.53;6264833;22;20245;-96
2022/10/26 15:36:25;;;;;;;27.02;4.38;;;;;;;-144.40;100.00;60209.53;6266191;22;19992;-96
2022/10/26 15:39:03;;;;;;;38.67;4.95;;;;;;;-144.40;100.00;60209.53;6268241;22;20035;-96
2022/10/26 15:41:31;;;;;;;35.08;5.75;;;;;;;-144.40;100.00;60209.53;6264215;22;20051;-96
2022/10/26 15:44:04;;;;;;;35.97;6.50;;;;;;;-144.40;100.00;60209.53;6264899;22;20043;-96
2022/10/26 15:46:45;;;;;;;37.08;7.25;;;;;;;-144.40;100.00;60209.53;6268807;22;20011;-96
2022/10/26 15:49:18;;;;;;;30.98;5.88;;;;;;;-144.40;100.00;60209.53;6270119;22;20014;-95
2022/10/26 17:39:45;;;;;;;30.98;5.70;;;;;;;19.59;97.97;100306.03;6154606;22;20312;-96
2022/10/26 17:42:11;;;;;;;43.30;6.25;;;;;;;19.72;96.85;100294.91;6273141;22;20026;-96
2022/10/26 17:44:37;;;;;;;36.13;5.78;;;;;;;19.42;99.20;100310.50;6271647;22;20053;-96
2022/10/26 17:47:03;;;;;;;42.40;6.13;;;;;;;19.29;100.00;100312.78;6270848;22;20066;-96
2022/10/26 17:49:29;;;;;;;46.90;7.43;;;;;;;19.38;99.56;100306.50;6270468;22;20002;-96
2022/10/26 17:51:55;;;;;;;37.03;6.22;;;;;;;19.48;98.68;100322.31;6266665;22;20008;-96
2022/10/26 17:54:20;;;;;;;32.97;5.10;;;;;;;19.35;99.48;100333.47;6268386;22;20005;-96
2022/10/26 17:56:46;;;;;;;37.25;5.90;;;;;;;19.38;99.35;100333.13;6267341;22;20009;-96
2022/10/26 18:01:50;;;;;;;39.97;6.85;;;;;;;19.26;100.00;100345.06;6145843;22;20036;-95
2022/10/26 18:04:50;;;;;;;25.10;4.70;;;;;;;19.22;99.97;100325.09;6275910;22;20095;-96
2022/10/26 18:12:22;;;;;;;40.78;7.95;;;;;;;19.28;99.47;100329.78;6165067;22;20032;-96
2022/10/26 18:14:49;;;;;;;29.98;5.72;;;;;;;19.28;100.00;100347.59;6167678;22;20056;-96
2022/10/26 18:27:49;;;;;;;36.30;6.22;;;;;;;19.27;100.00;100346.72;6172752;22;20559;-96
2022/10/26 18:30:15;;;;;;;29.42;6.50;;;;;;;19.34;100.00;100350.41;6277894;22;20040;-95
2022/10/26 18:32:41;;;;;;;35.38;7.20;;;;;;;19.14;100.00;100352.53;6272987;22;19998;-95
2022/10/26 19:57:55;;;;;;;36.58;6.63;;;;;;;18.11;100.00;100400.25;6148682;22;20014;-96
2022/10/26 20:02:56;;;;;;;34.58;6.15;;;;;;;18.06;100.00;100404.38;6115009;22;20028;-96
2022/10/26 20:05:47;;;;;;;32.70;6.45;;;;;;;18.09;100.00;100399.59;6115241;23;19998;-95
2022/10/26 20:08:37;;;;;;;37.47;6.38;;;;;;;18.26;100.00;100400.53;6159093;22;20027;-96
2022/10/26 20:23:59;;;;;;;34.20;6.47;;;;;;;18.10;100.00;100417.19;6148130;22;20001;-96
2022/10/26 20:26:52;;;;;;;42.13;7.07;;;;;;;18.10;100.00;100422.50;6176502;22;20000;-96
2022/10/26 21:31:48;;;;;;;26.92;5.32;;;;;;;17.55;100.00;100422.59;6125048;22;20013;-95
2022/10/26 21:34:14;;;;;;;35.15;5.60;;;;;;;17.63;100.00;100427.97;6266198;22;20088;-95
2022/10/26 21:36:40;;;;;;;38.95;6.28;;;;;;;17.41;100.00;100424.75;6264909;22;20073;-96
2022/10/26 21:39:06;;;;;;;31.85;6.03;;;;;;;17.53;100.00;100425.38;6265758;22;20020;-95
2022/10/26 21:41:34;;;;;;;30.98;4.63;;;;;;;17.59;100.00;100431.91;6262619;22;19997;-96
2022/10/26 21:44:01;;;;;;;29.52;5.30;;;;;;;17.31;100.00;100417.84;6265086;22;20006;-95
2022/10/26 21:46:27;;;;;;;22.75;4.82;;;;;;;17.25;100.00;100430.69;6263225;22;20339;-95
2022/10/26 21:48:52;;;;;;;27.52;5.25;;;;;;;17.28;100.00;100426.06;6261368;22;20036;-95
2022/10/26 21:51:19;;;;;;;19.92;3.67;;;;;;;17.07;100.00;100413.06;6262149;22;20006;-96
2022/10/26 21:53:46;;;;;;;23.05;4.30;;;;;;;17.10;100.00;100402.16;6259228;22;20009;-95
2022/10/26 21:56:15;;;;;;;27.02;5.20;;;;;;;16.65;100.00;100401.88;6259491;22;20335;-95
2022/10/26 21:58:41;;;;;;;26.17;5.00;;;;;;;16.54;100.00;100407.31;6262809;22;20012;-96
2022/10/26 22:01:18;;;;;;;34.58;5.20;;;;;;;16.46;100.00;100412.50;6257869;22;20080;-95
2022/10/26 22:03:44;;;;;;;25.30;5.28;;;;;;;16.84;100.00;100402.81;6258871;22;20077;-96
2022/10/26 22:06:13;;;;;;;22.58;4.35;;;;;;;17.00;100.00;100415.44;6258181;22;20009;-96
2022/10/26 22:08:38;;;;;;;17.95;3.80;;;;;;;17.02;100.00;100410.84;6259494;22;20001;-95
2022/10/26 22:11:09;;;;;;;24.13;4.32;;;;;;;17.16;100.00;100417.47;6258736;22;20029;-96
2022/10/26 22:13:35;;;;;;;25.58;4.43;;;;;;;17.17;100.00;100419.16;6258195;22;20006;-95
2022/10/26 22:16:10;;;;;;;27.77;5.28;;;;;;;17.24;100.00;100415.78;6258679;22;20016;-96
2022/10/26 22:18:37;;;;;;;29.10;4.30;;;;;;;17.17;100.00;100414.69;6258026;22;20447;-96
2022/10/26 22:21:04;;;;;;;16.27;3.50;;;;;;;17.03;100.00;100412.53;6259105;22;20001;-96
2022/10/26 22:23:37;;;;;;;25.60;5.65;;;;;;;17.27;100.00;100419.94;6259974;22;19998;-95
2022/10/26 22:26:09;;;;;;;31.92;4.80;;;;;;;17.23;100.00;100419.41;6258868;22;20005;-95
2022/10/26 22:28:36;;;;;;;29.13;4.55;;;;;;;17.25;100.00;100416.59;6258574;22;20005;-96
2022/10/26 22:31:05;;;;;;;30.13;5.50;;;;;;;17.20;100.00;100406.44;6285930;22;20005;-95
2022/10/26 22:33:31;;;;;;;40.67;6.97;;;;;;;17.21;100.00;100410.75;6265655;22;20010;-96
2022/10/26 22:36:04;;;;;;;36.00;6.40;;;;;;;17.30;100.00;100414.34;6263558;22;20005;-96
2022/10/26 22:38:29;;;;;;;27.25;4.85;;;;;;;17.34;100.00;100421.03;6260522;22;20010;-95
2022/10/26 22:40:56;;;;;;;32.88;5.72;;;;;;;17.41;100.00;100421.28;6259281;22;20009;-96
2022/10/26 22:43:22;;;;;;;39.92;6.95;;;;;;;17.47;100.00;100407.41;6260464;22;20012;-95
2022/10/26 22:45:47;;;;;;;30.55;5.13;;;;;;;17.54;100.00;100416.44;6258387;22;20347;-96
2022/10/26 22:48:13;;;;;;;22.52;4.82;;;;;;;17.49;100.00;100407.25;6258157;22;20014;-96
2022/10/26 22:50:39;;;;;;;19.48;3.75;;;;;;;17.51;100.00;100415.91;6257807;22;20373;-96
2022/10/26 22:53:05;;;;;;;23.50;4.07;;;;;;;17.47;100.00;100411.88;6258488;22;20010;-95
2022/10/26 22:55:30;;;;;;;23.83;3.92;;;;;;;17.39;100.00;100408.13;6257413;22;20017;-96
2022/10/26 22:57:56;;;;;;;22.38;4.43;;;;;;;17.31;100.00;100397.44;6257475;22;20032;-95
2022/10/26 23:00:21;;;;;;;36.42;5.45;;;;;;;17.27;100.00;100397.88;6256792;22;20081;-96
2022/10/26 23:02:47;;;;;;;20.45;4.05;;;;;;;17.24;100.00;100407.81;6258427;22;20006;-95
2022/10/26 23:05:12;;;;;;;19.45;3.58;;;;;;;17.07;100.00;100407.75;6259688;22;20079;-96
2022/10/26 23:07:38;;;;;;;20.45;4.35;;;;;;;17.08;100.00;100420.03;6260093;22;20087;-95
2022/10/26 23:10:04;;;;;;;23.38;4.40;;;;;;;16.96;100.00;100393.72;6260083;22;20034;-95
2022/10/26 23:12:29;;;;;;;15.88;3.50;;;;;;;16.91;100.00;100401.25;6258706;22;20080;-95
2022/10/26 23:14:55;;;;;;;22.67;4.47;;;;;;;16.77;100.00;100396.41;6257675;22;20020;-95
2022/10/26 23:17:21;;;;;;;16.95;4.00;;;;;;;16.73;100.00;100389.72;6259923;22;20013;-96
2022/10/26 23:19:46;;;;;;;24.33;3.55;;;;;;;16.70;100.00;100390.81;6260685;22;20061;-96
2022/10/26 23:22:12;;;;;;;24.77;4.25;;;;;;;16.63;100.00;100406.47;6260686;22;20335;-96
2022/10/26 23:24:38;;;;;;;17.88;3.83;;;;;;;16.64;100.00;100402.81;6260091;22;20005;-96
2022/10/26 23:27:03;;;;;;;18.98;5.25;;;;;;;16.63;100.00;100403.00;6259977;22;20002;-95
2022/10/26 23:29:29;;;;;;;15.55;3.58;;;;;;;16.58;100.00;100397.28;6259641;22;20008;-96
2022/10/26 23:31:55;;;;;;;22.40;4.97;;;;;;;16.57;100.00;100396.44;6262310;22;20077;-95
2022/10/26 23:34:20;;;;;;;15.43;3.25;;;;;;;16.54;100.00;100390.59;6262734;22;20006;-96
2022/10/26 23:36:46;;;;;;;18.30;4.18;;;;;;;16.51;100.00;100382.91;6259647;22;20012;-96
2022/10/26 23:39:12;;;;;;;9.35;2.85;;;;;;;16.58;100.00;100390.16;6259716;22;20011;-96
2022/10/26 23:41:38;;;;;;;15.43;3.20;;;;;;;16.52;100.00;100376.66;6259182;22;20110;-96
2022/10/26 23:44:04;;;;;;;18.42;3.55;;;;;;;16.56;100.00;100357.66;6259764;22;20073;-95
2022/10/26 23:46:30;;;;;;;25.73;4.40;;;;;;;16.66;100.00;100347.84;6260447;22;20009;-96
2022/10/26 23:48:55;;;;;;;21.52;3.97;;;;;;;16.76;100.00;100350.47;6258856;22;20074;-95
2022/10/26 23:51:21;;;;;;;16.80;4.40;;;;;;;16.79;100.00;100367.91;6261053;22;20006;-96
2022/10/26 23:53:47;;;;;;;14.48;3.00;;;;;;;16.76;100.00;100353.13;6262796;22;20021;-96
2022/10/26 23:56:12;;;;;;;19.85;3.95;;;;;;;16.92;100.00;100372.91;6260730;22;20454;-96
2022/10/26 23:58:38;;;;;;;14.27;3.00;;;;;;;16.85;100.00;100356.75;6261072;22;19994;-96
